createdAt,value
2022-09-24T00:00:39.857Z,4.25
2022-09-24T00:02:47.109Z,4.40
2022-09-24T00:04:54.439Z,4.10
2022-09-24T00:07:01.565Z,4.07
2022-09-24T00:09:23.282Z,4.47
2022-09-24T00:11:45.007Z,4.03
2022-09-24T00:13:52.436Z,3.60
2022-09-24T00:16:14.078Z,3.97
2022-09-24T00:18:33.946Z,3.78
2022-09-24T00:20:53.304Z,3.95
2022-09-24T00:23:13.338Z,4.25
2022-09-24T00:25:37.365Z,3.90
2022-09-24T00:27:45.980Z,4.30
2022-09-24T00:30:05.350Z,3.90
2022-09-24T00:32:24.935Z,4.05
2022-09-24T00:34:44.080Z,4.10
2022-09-24T00:36:51.214Z,3.63
2022-09-24T00:39:11.151Z,3.78
2022-09-24T00:41:33.375Z,3.90
2022-09-24T00:46:19.789Z,3.85
2022-09-24T00:48:27.402Z,4.10
2022-09-24T00:50:47.054Z,4.20
2022-09-24T00:52:57.928Z,3.97
2022-09-24T00:55:19.442Z,3.90
2022-09-24T00:57:40.095Z,4.30
2022-09-24T01:00:01.307Z,4.10
2022-09-24T01:02:20.819Z,3.38
2022-09-24T01:04:30.255Z,3.90
2022-09-24T01:06:37.388Z,3.70
2022-09-24T01:08:58.143Z,4.20
2022-09-24T01:11:28.614Z,3.90
2022-09-24T01:14:06.564Z,4.25
2022-09-24T01:16:20.092Z,4.00
2022-09-24T01:18:44.390Z,4.10
2022-09-24T01:21:33.652Z,3.80
2022-09-24T01:24:02.848Z,3.17
2022-09-24T01:26:43.523Z,4.50
2022-09-24T01:29:07.343Z,3.80
2022-09-24T01:31:33.116Z,3.70
2022-09-24T01:33:56.266Z,3.75
2022-09-24T01:36:17.011Z,3.25
2022-09-24T01:38:28.098Z,3.10
2022-09-24T01:40:48.656Z,3.55
2022-09-24T01:43:09.581Z,3.42
2022-09-24T01:45:31.353Z,3.30
2022-09-24T01:47:42.687Z,3.35
2022-09-24T01:49:54.581Z,3.40
2022-09-24T01:52:04.263Z,3.08
2022-09-24T01:54:15.087Z,3.38
2022-09-24T01:56:40.284Z,3.47
2022-09-24T01:58:53.055Z,3.33
2022-09-24T02:01:15.808Z,3.33
2022-09-24T02:03:44.278Z,3.45
2022-09-24T02:05:55.003Z,4.00
2022-09-24T02:08:09.711Z,2.95
2022-09-24T02:10:19.652Z,3.30
2022-09-24T02:12:44.132Z,3.38
2022-09-24T02:15:08.210Z,3.03
2022-09-24T02:17:31.573Z,2.90
2022-09-24T02:19:53.547Z,3.20
2022-09-24T02:24:40.593Z,2.83
2022-09-24T02:26:47.757Z,2.90
2022-09-24T02:29:07.386Z,3.10
2022-09-24T02:31:32.353Z,2.70
2022-09-24T02:34:10.864Z,12.25
2022-09-24T02:36:20.646Z,3.45
2022-09-24T02:38:40.129Z,2.88
2022-09-24T02:40:59.990Z,2.70
2022-09-24T02:43:07.588Z,2.88
2022-09-24T02:45:15.739Z,2.83
2022-09-24T02:47:35.360Z,2.88
2022-09-24T02:49:54.525Z,3.00
2022-09-24T02:52:15.895Z,3.03
2022-09-24T02:54:23.231Z,3.00
2022-09-24T02:56:30.504Z,3.22
2022-09-24T02:58:49.839Z,3.20
2022-09-24T03:01:09.955Z,3.30
2022-09-24T03:03:17.040Z,3.35
2022-09-24T03:05:36.663Z,3.45
2022-09-24T03:07:45.530Z,3.50
2022-09-24T03:10:04.749Z,3.45
2022-09-24T03:12:11.973Z,3.83
2022-09-24T03:14:19.368Z,3.90
2022-09-24T03:16:38.798Z,3.35
2022-09-24T03:18:58.507Z,3.30
2022-09-24T03:21:07.429Z,3.70
2022-09-24T03:23:16.255Z,3.00
2022-09-24T03:25:24.453Z,3.30
2022-09-24T03:27:43.730Z,3.45
2022-09-24T03:30:19.318Z,3.03
2022-09-24T03:32:39.709Z,3.20
2022-09-24T03:34:58.920Z,3.03
2022-09-24T03:37:18.493Z,3.17
2022-09-24T03:39:27.213Z,3.08
2022-09-24T03:41:46.784Z,3.33
2022-09-24T03:44:06.255Z,3.00
2022-09-24T03:46:15.527Z,3.30
2022-09-24T03:48:23.845Z,2.90
2022-09-24T03:50:31.228Z,3.17
2022-09-24T03:52:38.272Z,3.33
2022-09-24T03:54:47.136Z,2.90
2022-09-24T03:56:54.103Z,3.20
2022-09-24T03:59:14.239Z,3.17
2022-09-24T04:01:34.247Z,3.50
2022-09-24T04:03:54.259Z,3.00
2022-09-24T04:06:01.130Z,3.15
2022-09-24T04:08:08.828Z,3.30
2022-09-24T04:10:17.488Z,3.40
2022-09-24T04:12:24.872Z,3.97
2022-09-24T04:14:43.857Z,4.88
2022-09-24T04:16:51.374Z,5.18
2022-09-24T04:18:59.122Z,5.85
2022-09-24T04:21:06.355Z,3.75
2022-09-24T04:23:26.124Z,2.97
2022-09-24T04:25:47.390Z,2.95
2022-09-24T04:27:57.949Z,3.00
2022-09-24T04:30:05.041Z,3.10
2022-09-24T04:32:12.311Z,3.20
2022-09-24T04:34:31.587Z,3.20
2022-09-24T04:36:39.025Z,3.03
2022-09-24T04:38:58.330Z,3.08
2022-09-24T04:41:13.606Z,2.80
2022-09-24T04:43:21.303Z,3.30
2022-09-24T04:45:41.589Z,3.20
2022-09-24T04:48:01.469Z,3.25
2022-09-24T04:50:09.364Z,3.05
2022-09-24T04:52:17.770Z,2.88
2022-09-24T04:54:24.906Z,3.83
2022-09-24T04:56:33.829Z,3.40
2022-09-24T04:58:41.064Z,3.70
2022-09-24T05:01:00.434Z,3.42
2022-09-24T05:03:20.304Z,3.28
2022-09-24T05:05:27.182Z,3.50
2022-09-24T05:07:46.567Z,3.38
2022-09-24T05:09:53.941Z,3.38
2022-09-24T05:12:02.705Z,3.28
2022-09-24T05:14:09.936Z,3.42
2022-09-24T05:16:29.088Z,3.28
2022-09-24T05:18:37.264Z,2.95
2022-09-24T05:20:44.332Z,3.22
2022-09-24T05:22:52.895Z,3.10
2022-09-24T05:25:00.096Z,2.75
2022-09-24T05:27:20.892Z,3.50
2022-09-24T05:29:41.174Z,3.08
2022-09-24T05:32:01.769Z,2.72
2022-09-24T05:34:08.702Z,3.03
2022-09-24T05:36:15.776Z,2.92
2022-09-24T05:38:22.797Z,3.10
2022-09-24T05:40:45.982Z,3.00
2022-09-24T05:43:07.570Z,3.38
2022-09-24T05:45:15.119Z,3.00
2022-09-24T05:47:34.327Z,2.63
2022-09-24T05:49:53.907Z,2.72
2022-09-24T05:52:13.162Z,3.30
2022-09-24T05:54:32.374Z,3.35
2022-09-24T05:56:51.587Z,3.25
2022-09-24T05:59:12.706Z,2.92
2022-09-24T06:01:20.139Z,2.47
2022-09-24T06:03:27.185Z,2.40
2022-09-24T06:05:49.659Z,2.15
2022-09-24T06:08:09.847Z,2.20
2022-09-24T06:10:29.308Z,2.35
2022-09-24T06:12:36.861Z,2.28
2022-09-24T06:14:57.761Z,2.30
2022-09-24T06:17:16.766Z,2.17
2022-09-24T06:19:38.127Z,2.38
2022-09-24T06:21:45.051Z,2.33
2022-09-24T06:23:52.899Z,2.90
2022-09-24T06:26:00.246Z,2.67
2022-09-24T06:28:08.343Z,2.30
2022-09-24T06:30:17.269Z,2.20
2022-09-24T06:32:36.639Z,2.30
2022-09-24T06:34:59.191Z,2.40
2022-09-24T06:37:19.047Z,2.20
2022-09-24T06:39:27.155Z,2.20
2022-09-24T06:41:34.131Z,2.10
2022-09-24T06:43:41.216Z,1.98
2022-09-24T06:45:50.393Z,2.03
2022-09-24T06:48:10.485Z,2.20
2022-09-24T06:50:31.579Z,2.05
2022-09-24T06:52:50.899Z,2.10
2022-09-24T06:55:10.927Z,1.88
2022-09-24T06:57:30.300Z,2.42
2022-09-24T06:59:37.276Z,2.40
2022-09-24T07:01:58.659Z,2.08
2022-09-24T07:04:06.133Z,2.45
2022-09-24T07:06:13.458Z,2.20
2022-09-24T07:08:21.004Z,2.10
2022-09-24T07:10:29.154Z,2.13
2022-09-24T07:12:48.476Z,2.03
2022-09-24T07:14:55.758Z,2.20
2022-09-24T07:17:04.234Z,1.85
2022-09-24T07:19:23.693Z,2.30
2022-09-24T07:21:30.773Z,2.78
2022-09-24T07:23:37.848Z,3.40
2022-09-24T07:25:44.921Z,2.78
2022-09-24T07:28:08.097Z,2.38
2022-09-24T07:30:15.721Z,2.10
2022-09-24T07:32:36.728Z,2.08
2022-09-24T07:34:56.431Z,2.10
2022-09-24T07:37:03.858Z,2.17
2022-09-24T07:39:23.259Z,2.30
2022-09-24T07:41:30.800Z,2.45
2022-09-24T07:43:50.937Z,2.30
2022-09-24T07:46:10.460Z,2.60
2022-09-24T07:48:19.231Z,2.33
2022-09-24T07:50:41.818Z,2.67
2022-09-24T07:52:54.690Z,2.20
2022-09-24T07:55:14.049Z,2.60
2022-09-24T07:57:21.079Z,2.63
2022-09-24T07:59:28.163Z,2.17
2022-09-24T08:01:35.872Z,2.30
2022-09-24T08:03:57.741Z,2.20
2022-09-24T08:06:04.959Z,2.13
2022-09-24T08:08:24.278Z,2.47
2022-09-24T08:10:32.507Z,2.38
2022-09-24T08:12:51.710Z,2.50
2022-09-24T08:15:11.227Z,2.30
2022-09-24T08:17:18.352Z,2.22
2022-09-24T08:19:40.938Z,2.40
2022-09-24T08:21:49.661Z,2.72
2022-09-24T08:24:09.333Z,2.55
2022-09-24T08:26:16.877Z,2.13
2022-09-24T08:28:36.248Z,2.30
2022-09-24T08:30:44.100Z,2.30
2022-09-24T08:33:03.449Z,2.38
2022-09-24T08:35:13.186Z,2.50
2022-09-24T08:39:39.638Z,2.38
2022-09-24T08:42:02.151Z,2.33
2022-09-24T08:44:40.649Z,2.72
2022-09-24T08:47:19.930Z,2.47
2022-09-24T08:49:31.109Z,2.72
2022-09-24T08:51:44.542Z,2.35
2022-09-24T08:54:09.196Z,2.50
2022-09-24T08:56:17.688Z,2.72
2022-09-24T08:58:43.456Z,2.65
2022-09-24T09:00:57.039Z,2.25
2022-09-24T09:03:11.786Z,2.13
2022-09-24T09:05:28.866Z,2.50
2022-09-24T09:07:57.954Z,2.60
2022-09-24T09:10:08.156Z,2.42
2022-09-24T09:12:33.469Z,2.30
2022-09-24T09:14:46.844Z,2.55
2022-09-24T09:16:58.476Z,2.60
2022-09-24T09:19:12.019Z,2.60
2022-09-24T09:21:22.114Z,2.70
2022-09-24T09:23:49.976Z,2.65
2022-09-24T09:25:59.512Z,2.40
2022-09-24T09:28:11.354Z,2.67
2022-09-24T09:30:21.876Z,2.50
2022-09-24T09:32:51.369Z,2.28
2022-09-24T09:35:06.283Z,2.63
2022-09-24T09:37:32.315Z,2.85
2022-09-24T09:40:01.298Z,2.20
2022-09-24T09:42:33.210Z,2.40
2022-09-24T09:44:44.390Z,2.60
2022-09-24T09:46:58.776Z,2.65
2022-09-24T09:49:09.750Z,2.55
2022-09-24T09:51:35.880Z,2.60
2022-09-24T09:54:02.844Z,2.90
2022-09-24T09:56:12.213Z,2.72
2022-09-24T09:58:25.175Z,2.30
2022-09-24T10:00:45.054Z,2.83
2022-09-24T10:02:55.235Z,2.28
2022-09-24T10:05:27.380Z,2.72
2022-09-24T10:07:34.653Z,2.90
2022-09-24T10:10:05.034Z,2.80
2022-09-24T10:12:19.651Z,2.72
2022-09-24T10:14:26.616Z,2.53
2022-09-24T10:16:47.633Z,2.58
2022-09-24T10:18:54.960Z,2.53
2022-09-24T10:21:05.115Z,2.60
2022-09-24T10:23:29.440Z,2.80
2022-09-24T10:25:54.746Z,3.58
2022-09-24T10:28:35.419Z,3.65
2022-09-24T10:30:53.537Z,3.00
2022-09-24T10:33:12.716Z,3.63
2022-09-24T10:35:26.808Z,3.45
2022-09-24T10:37:55.541Z,3.67
2022-09-24T10:40:18.232Z,3.40
2022-09-24T10:42:28.660Z,3.72
2022-09-24T10:44:52.813Z,3.72
2022-09-24T10:47:25.672Z,3.30
2022-09-24T10:49:46.355Z,3.35
2022-09-24T10:52:12.434Z,3.08
2022-09-24T10:54:35.486Z,3.33
2022-09-24T10:56:56.909Z,3.30
2022-09-24T10:59:47.298Z,3.00
2022-09-24T11:02:08.982Z,3.38
2022-09-24T11:04:55.573Z,3.30
2022-09-24T11:07:48.600Z,3.30
2022-09-24T11:10:20.403Z,3.25
2022-09-24T11:12:50.151Z,3.17
2022-09-24T11:15:18.736Z,3.70
2022-09-24T11:17:42.911Z,4.20
2022-09-24T11:20:07.605Z,3.72
2022-09-24T11:22:17.808Z,3.53
2022-09-24T11:24:59.704Z,3.97
2022-09-24T11:27:22.813Z,3.67
2022-09-24T11:29:55.284Z,1.63
2022-09-24T11:32:12.714Z,1.08
2022-09-24T11:34:44.153Z,0.82
2022-09-24T11:37:18.027Z,0.93
2022-09-24T11:39:37.651Z,1.20
2022-09-24T11:42:07.502Z,0.68
2022-09-24T11:45:02.149Z,0.52
2022-09-24T11:47:34.721Z,0.70
2022-09-24T11:52:13.569Z,9.20
2022-09-24T11:54:27.191Z,9.90
2022-09-24T11:56:50.506Z,2.42
2022-09-24T11:59:01.417Z,1.70
2022-09-24T12:01:24.343Z,2.00
2022-09-24T12:03:40.212Z,1.80
2022-09-24T12:05:53.429Z,2.30
2022-09-24T12:08:04.295Z,2.22
2022-09-24T12:10:36.877Z,2.88
2022-09-24T12:12:46.356Z,3.15
2022-09-24T12:17:22.020Z,2.38
2022-09-24T12:19:35.189Z,2.58
2022-09-24T12:21:47.055Z,2.67
2022-09-24T12:24:02.478Z,2.60
2022-09-24T12:26:25.313Z,2.35
2022-09-24T12:28:57.034Z,2.55
2022-09-24T12:31:22.265Z,2.03
2022-09-24T12:33:46.814Z,2.30
2022-09-24T12:36:12.479Z,2.00
2022-09-24T12:38:37.010Z,2.53
2022-09-24T12:41:29.823Z,2.13
2022-09-24T12:43:53.021Z,2.00
2022-09-24T12:46:22.074Z,1.80
2022-09-24T12:48:42.825Z,1.85
2022-09-24T12:51:02.078Z,2.00
2022-09-24T12:53:27.593Z,2.20
2022-09-24T12:56:03.185Z,1.95
2022-09-24T13:04:45.326Z,1.70
2022-09-24T13:06:57.620Z,2.20
2022-09-24T13:09:26.212Z,1.83
2022-09-24T13:11:48.249Z,1.70
2022-09-24T13:14:22.764Z,1.98
2022-09-24T13:16:44.075Z,1.70
2022-09-24T13:18:57.366Z,2.05
2022-09-24T13:21:25.476Z,1.95
2022-09-24T13:23:50.077Z,1.73
2022-09-24T13:26:01.396Z,1.42
2022-09-24T13:28:38.660Z,1.70
2022-09-24T13:30:47.505Z,1.30
2022-09-24T13:33:18.802Z,1.30
2022-09-24T13:35:30.074Z,1.50
2022-09-24T13:37:57.543Z,1.30
2022-09-24T13:40:21.777Z,1.60
2022-09-24T13:42:48.916Z,1.20
2022-09-24T13:45:14.628Z,1.33
2022-09-24T13:47:40.057Z,1.55
2022-09-24T13:50:06.371Z,1.45
2022-09-24T13:52:33.682Z,1.70
2022-09-24T13:54:56.519Z,1.60
2022-09-24T13:57:17.577Z,1.85
2022-09-24T13:59:24.596Z,1.50
2022-09-24T14:01:38.547Z,1.80
2022-09-24T14:03:54.180Z,1.83
2022-09-24T14:06:17.847Z,1.85
2022-09-24T14:08:28.608Z,2.15
2022-09-24T14:10:37.227Z,2.15
2022-09-24T14:12:44.558Z,2.50
2022-09-24T14:14:59.267Z,2.25
2022-09-24T14:17:20.684Z,2.40
2022-09-24T14:19:40.172Z,2.15
2022-09-24T14:21:50.826Z,2.47
2022-09-24T14:24:01.485Z,2.22
2022-09-24T14:26:29.753Z,2.10
2022-09-24T14:28:38.179Z,2.38
2022-09-24T14:30:53.562Z,2.38
2022-09-24T14:33:06.829Z,2.53
2022-09-24T14:35:32.692Z,2.75
2022-09-24T14:37:54.774Z,2.50
2022-09-24T14:40:19.419Z,3.13
2022-09-24T14:42:30.376Z,2.78
2022-09-24T14:44:38.845Z,2.53
2022-09-24T14:46:53.020Z,2.60
2022-09-24T14:49:20.133Z,2.70
2022-09-24T14:51:31.620Z,2.80
2022-09-24T14:54:01.694Z,3.28
2022-09-24T14:56:24.279Z,3.05
2022-09-24T14:58:39.088Z,3.08
2022-09-24T15:00:52.726Z,2.80
2022-09-24T15:03:17.730Z,3.00
2022-09-24T15:05:39.147Z,3.15
2022-09-24T15:07:47.798Z,3.17
2022-09-24T15:10:09.166Z,3.10
2022-09-24T15:12:23.783Z,3.13
2022-09-24T15:14:37.253Z,3.33
2022-09-24T15:16:58.312Z,3.35
2022-09-24T15:19:22.440Z,3.40
2022-09-24T15:21:31.253Z,3.83
2022-09-24T15:23:50.982Z,4.38
2022-09-24T15:25:58.007Z,3.25
2022-09-24T15:28:18.261Z,2.80
2022-09-24T15:30:40.558Z,2.50
2022-09-24T15:35:09.801Z,2.55
2022-09-24T15:37:22.150Z,2.28
2022-09-24T15:39:49.614Z,2.05
2022-09-24T15:41:56.998Z,2.17
2022-09-24T15:44:04.701Z,2.20
2022-09-24T15:46:11.631Z,2.45
2022-09-24T15:48:19.016Z,2.42
2022-09-24T15:50:38.321Z,2.58
2022-09-24T15:52:51.951Z,2.72
2022-09-24T15:55:00.715Z,2.53
2022-09-24T15:57:20.460Z,3.08
2022-09-24T15:59:39.555Z,2.53
2022-09-24T16:01:46.701Z,2.70
2022-09-24T16:03:55.156Z,2.47
2022-09-24T16:06:16.063Z,2.63
2022-09-24T16:08:25.075Z,2.78
2022-09-24T16:10:32.415Z,2.80
2022-09-24T16:12:39.695Z,3.10
2022-09-24T16:14:46.980Z,3.30
2022-09-24T16:16:53.752Z,3.17
2022-09-24T16:19:13.471Z,3.10
2022-09-24T16:21:20.702Z,3.17
2022-09-24T16:23:41.566Z,3.47
2022-09-24T16:25:59.343Z,3.38
2022-09-24T16:28:18.705Z,3.38
2022-09-24T16:30:26.262Z,3.47
2022-09-24T16:32:45.526Z,3.33
2022-09-24T16:35:05.253Z,3.45
2022-09-24T16:37:12.468Z,3.42
2022-09-24T16:39:21.286Z,3.60
2022-09-24T16:41:28.371Z,3.80
2022-09-24T16:43:47.583Z,3.47
2022-09-24T16:46:08.267Z,3.95
2022-09-24T16:48:27.660Z,4.00
2022-09-24T16:50:46.810Z,3.53
2022-09-24T16:52:56.051Z,3.65
2022-09-24T16:55:17.250Z,3.95
2022-09-24T16:57:38.669Z,4.07
2022-09-24T16:59:57.931Z,3.83
2022-09-24T17:02:17.705Z,3.88
2022-09-24T17:04:24.684Z,4.10
2022-09-24T17:06:45.703Z,4.00
2022-09-24T17:09:09.174Z,3.90
2022-09-24T17:11:18.297Z,4.03
2022-09-24T17:13:25.514Z,3.78
2022-09-24T17:15:32.733Z,3.92
2022-09-24T17:17:45.646Z,4.13
2022-09-24T17:19:55.452Z,3.60
2022-09-24T17:22:14.779Z,3.55
2022-09-24T17:24:22.563Z,4.10
2022-09-24T17:26:43.830Z,3.75
2022-09-24T17:29:03.263Z,3.85
2022-09-24T17:31:12.224Z,3.75
2022-09-24T17:33:41.795Z,3.63
2022-09-24T17:35:56.329Z,3.60
2022-09-24T17:38:03.714Z,4.05
2022-09-24T17:40:24.328Z,3.67
2022-09-24T17:42:46.907Z,3.80
2022-09-24T17:45:06.220Z,4.20
2022-09-24T17:47:45.607Z,3.78
2022-09-24T17:49:52.787Z,3.78
2022-09-24T17:52:14.512Z,4.03
2022-09-24T17:54:24.425Z,3.65
2022-09-24T17:56:44.388Z,3.63
2022-09-24T17:59:05.597Z,3.25
2022-09-24T18:01:26.845Z,3.67
2022-09-24T18:03:33.998Z,5.90
2022-09-24T18:05:53.463Z,6.88
2022-09-24T18:08:13.292Z,7.82
2022-09-24T18:10:32.714Z,5.13
2022-09-24T18:12:51.868Z,5.00
2022-09-24T18:15:00.894Z,4.20
2022-09-24T18:17:20.157Z,3.42
2022-09-24T18:19:27.463Z,3.08
2022-09-24T18:21:47.378Z,3.25
2022-09-24T18:24:06.995Z,4.15
2022-09-24T18:26:27.749Z,3.60
2022-09-24T18:28:51.366Z,3.50
2022-09-24T18:31:14.337Z,3.03
2022-09-24T18:33:21.564Z,3.00
2022-09-24T18:35:40.922Z,3.42
2022-09-24T18:37:48.455Z,3.30
2022-09-24T18:39:55.340Z,2.92
2022-09-24T18:42:14.748Z,3.08
2022-09-24T18:44:22.345Z,3.33
2022-09-24T18:46:32.961Z,3.25
2022-09-24T18:48:53.957Z,3.65
2022-09-24T18:51:20.092Z,3.30
2022-09-24T18:53:27.266Z,3.50
2022-09-24T18:55:47.193Z,3.33
2022-09-24T18:58:06.365Z,3.55
2022-09-24T19:00:42.213Z,3.20
2022-09-24T19:02:51.080Z,3.65
2022-09-24T19:04:58.373Z,3.53
2022-09-24T19:07:05.290Z,3.20
2022-09-24T19:09:14.473Z,3.53
2022-09-24T19:11:34.865Z,3.65
2022-09-24T19:13:55.824Z,3.47
2022-09-24T19:16:08.483Z,3.90
2022-09-24T19:18:18.529Z,3.40
2022-09-24T19:20:40.622Z,3.20
2022-09-24T19:25:09.002Z,3.55
2022-09-24T19:27:15.871Z,3.58
2022-09-24T19:29:35.099Z,3.63
2022-09-24T19:31:54.557Z,4.03
2022-09-24T19:34:16.797Z,3.20
2022-09-24T19:36:43.346Z,3.70
2022-09-24T19:38:51.715Z,3.70
2022-09-24T19:41:03.267Z,2.85
2022-09-24T19:43:10.464Z,3.30
2022-09-24T19:45:30.908Z,2.85
2022-09-24T19:47:50.572Z,3.10
2022-09-24T19:49:59.131Z,2.67
2022-09-24T19:52:18.500Z,2.60
2022-09-24T19:54:37.715Z,2.50
2022-09-24T19:56:57.184Z,2.75
2022-09-24T19:59:04.933Z,2.70
2022-09-24T20:01:24.971Z,2.47
2022-09-24T20:03:32.253Z,2.47
2022-09-24T20:05:42.706Z,2.42
2022-09-24T20:07:50.559Z,2.63
2022-09-24T20:10:10.846Z,2.45
2022-09-24T20:12:30.667Z,2.60
2022-09-24T20:14:37.646Z,2.58
2022-09-24T20:16:45.797Z,2.35
2022-09-24T20:19:06.147Z,2.42
2022-09-24T20:21:28.797Z,2.15
2022-09-24T20:23:48.564Z,2.40
2022-09-24T20:26:12.810Z,2.50
2022-09-24T20:28:19.612Z,2.30
2022-09-24T20:30:26.593Z,2.15
2022-09-24T20:32:33.532Z,2.33
2022-09-24T20:34:53.447Z,2.35
2022-09-24T20:37:02.679Z,1.95
2022-09-24T20:39:22.571Z,2.33
2022-09-24T20:41:29.692Z,2.38
2022-09-24T20:43:49.467Z,2.17
2022-09-24T20:46:15.162Z,2.55
2022-09-24T20:48:22.159Z,2.28
2022-09-24T20:50:41.478Z,2.38
2022-09-24T20:53:02.527Z,2.40
2022-09-24T20:55:10.683Z,2.45
2022-09-24T20:57:29.998Z,2.83
2022-09-24T20:59:36.786Z,2.85
2022-09-24T21:01:56.677Z,2.33
2022-09-24T21:04:04.543Z,2.78
2022-09-24T21:06:12.912Z,3.03
2022-09-24T21:08:35.350Z,3.00
2022-09-24T21:11:04.346Z,2.95
2022-09-24T21:13:11.333Z,3.17
2022-09-24T21:15:30.935Z,3.05
2022-09-24T21:17:38.174Z,2.40
2022-09-24T21:19:57.595Z,2.83
2022-09-24T21:22:16.808Z,2.75
2022-09-24T21:24:31.131Z,2.75
2022-09-24T21:26:40.247Z,3.05
2022-09-24T21:29:02.779Z,2.65
2022-09-24T21:31:24.099Z,2.85
2022-09-24T21:33:31.377Z,2.97
2022-09-24T21:35:38.704Z,2.83
2022-09-24T21:37:45.941Z,2.90
2022-09-24T21:39:54.725Z,2.60
2022-09-24T21:42:14.034Z,2.47
2022-09-24T21:44:22.445Z,2.65
2022-09-24T21:46:32.294Z,2.88
2022-09-24T21:48:39.669Z,2.88
2022-09-24T21:51:04.764Z,2.90
2022-09-24T21:53:11.741Z,2.92
2022-09-24T21:55:20.721Z,3.05
2022-09-24T21:57:28.115Z,2.60
2022-09-24T22:00:11.444Z,2.50
2022-09-24T22:02:32.520Z,2.72
2022-09-24T22:04:51.853Z,2.77
2022-09-24T22:07:11.171Z,2.95
2022-09-24T22:09:30.742Z,2.80
2022-09-24T22:11:39.787Z,2.90
2022-09-24T22:13:47.068Z,2.72
2022-09-24T22:16:06.828Z,3.17
2022-09-24T22:18:26.299Z,3.25
2022-09-24T22:20:46.694Z,3.70
2022-09-24T22:23:05.800Z,3.75
2022-09-24T22:25:13.404Z,3.58
2022-09-24T22:27:22.217Z,3.42
2022-09-24T22:29:41.529Z,3.58
2022-09-24T22:31:48.607Z,3.83
2022-09-24T22:34:12.560Z,3.05
2022-09-24T22:36:32.614Z,3.30
2022-09-24T22:38:54.503Z,3.25
2022-09-24T22:41:14.421Z,3.53
2022-09-24T22:43:35.793Z,3.38
2022-09-24T22:45:44.651Z,3.10
2022-09-24T22:48:04.388Z,3.57
2022-09-24T22:50:12.488Z,3.30
2022-09-24T22:52:32.115Z,3.15
2022-09-24T22:54:39.243Z,3.33
2022-09-24T22:56:46.278Z,3.78
2022-09-24T22:59:07.343Z,3.33
2022-09-24T23:01:28.711Z,3.30
2022-09-24T23:03:36.238Z,3.47
2022-09-24T23:05:55.550Z,3.95
2022-09-24T23:08:14.767Z,4.32
2022-09-24T23:10:34.129Z,4.57
2022-09-24T23:12:41.068Z,3.88
2022-09-24T23:14:53.611Z,3.80
2022-09-24T23:17:13.166Z,3.53
2022-09-24T23:19:21.694Z,3.28
2022-09-24T23:21:40.816Z,2.80
2022-09-24T23:24:01.532Z,3.40
2022-09-24T23:26:24.207Z,2.97
2022-09-24T23:31:00.745Z,3.22
2022-09-24T23:33:20.047Z,3.17
2022-09-24T23:35:39.229Z,3.53
2022-09-24T23:37:58.427Z,3.90
2022-09-24T23:40:17.811Z,3.33
2022-09-24T23:42:25.385Z,3.55
2022-09-24T23:44:32.307Z,3.60
2022-09-24T23:46:41.027Z,3.35
2022-09-24T23:49:00.668Z,3.10
2022-09-24T23:51:19.918Z,3.40
2022-09-24T23:53:39.540Z,3.67
2022-09-24T23:55:59.120Z,3.15
2022-09-24T23:58:06.142Z,3.35
